Time;durP1;ratioP1;P1;durP2;ratioP2;P2;SDS_P1;SDS_P2;PMS_P1;PMS_P2;Temp;Humidity;BMP_temperature;BMP_pressure;BME280_temperature;BME280_humidity;BME280_pressure;Samples;Min_cycle;Max_cycle;Signal;HPM_P1;HPM_P2
2022/05/11 00:00:09;;;;;;;9.18;5.53;;;;;;;12.44;99.00;98432.53;5064147;28;20024;-65
2022/05/11 00:02:36;;;;;;;9.48;5.22;;;;;;;12.52;99.27;98435.81;5044658;28;20240;-65
2022/05/11 00:05:01;;;;;;;8.43;5.63;;;;;;;12.46;99.12;98436.00;5043818;28;20325;-65
2022/05/11 00:07:26;;;;;;;8.52;5.53;;;;;;;12.49;99.22;98435.03;5043894;28;20092;-65
2022/05/11 00:09:52;;;;;;;11.63;6.05;;;;;;;12.35;99.14;98424.91;5043860;28;20340;-65
2022/05/11 00:12:17;;;;;;;9.98;5.85;;;;;;;12.22;98.53;98426.16;5063442;28;20028;-65
2022/05/11 00:14:42;;;;;;;8.13;5.40;;;;;;;12.32;99.01;98432.91;5067875;28;20044;-65
2022/05/11 00:17:08;;;;;;;7.07;4.78;;;;;;;12.28;98.63;98431.25;5067904;28;20021;-65
2022/05/11 00:19:33;;;;;;;9.35;4.95;;;;;;;12.23;98.34;98422.63;5067810;28;20044;-65
2022/05/11 00:21:58;;;;;;;9.10;5.45;;;;;;;12.11;99.41;98422.97;5067051;28;20025;-65
2022/05/11 00:24:25;;;;;;;9.68;5.60;;;;;;;12.13;99.62;98421.16;5067659;28;20135;-65
2022/05/11 00:26:51;;;;;;;9.10;5.45;;;;;;;12.12;99.87;98422.06;5068016;28;20021;-65
2022/05/11 00:29:16;;;;;;;8.13;4.75;;;;;;;12.06;99.69;98424.88;5053396;28;20335;-65
2022/05/11 00:31:42;;;;;;;8.57;5.97;;;;;;;12.02;100.00;98417.09;5063670;28;20032;-65
2022/05/11 00:34:07;;;;;;;11.85;6.00;;;;;;;11.97;100.00;98413.72;5067630;28;20020;-65
2022/05/11 00:36:32;;;;;;;10.27;5.95;;;;;;;11.97;100.00;98414.59;5067574;28;20047;-65
2022/05/11 00:38:57;;;;;;;9.20;5.50;;;;;;;12.01;100.00;98410.09;5067800;28;20017;-65
2022/05/11 00:41:23;;;;;;;8.07;5.30;;;;;;;11.84;99.84;98413.22;5066775;28;20325;-65
2022/05/11 00:43:57;;;;;;;8.07;5.20;;;;;;;11.84;100.00;98412.34;5067343;28;20035;-65
2022/05/11 00:46:35;;;;;;;8.73;5.32;;;;;;;11.92;100.00;98416.50;5067375;28;20021;-65
2022/05/11 00:51:56;;;;;;;9.57;5.13;;;;;;;11.85;100.00;98395.59;5063365;28;20275;-65
2022/05/11 00:54:23;;;;;;;8.07;5.63;;;;;;;11.77;100.00;98400.25;5067244;28;20090;-65
2022/05/11 00:56:54;;;;;;;9.57;5.82;;;;;;;11.77;100.00;98406.34;5067259;28;20037;-65
2022/05/11 00:59:22;;;;;;;9.18;5.65;;;;;;;11.67;100.00;98402.25;5067164;28;20025;-65
2022/05/11 01:01:48;;;;;;;11.43;5.78;;;;;;;11.60;100.00;98392.75;5052246;28;20067;-65
2022/05/11 01:04:17;;;;;;;11.73;4.82;;;;;;;11.50;100.00;98391.28;5047469;28;20061;-65
2022/05/11 01:06:44;;;;;;;8.27;4.95;;;;;;;11.50;100.00;98391.28;5046788;28;20025;-65
2022/05/11 01:09:11;;;;;;;10.40;5.25;;;;;;;11.44;100.00;98391.44;5046802;28;20025;-65
2022/05/11 01:11:39;;;;;;;7.78;5.07;;;;;;;11.49;100.00;98389.56;5060091;28;20313;-65
2022/05/11 01:14:08;;;;;;;8.70;5.13;;;;;;;11.58;99.96;98384.00;5066459;28;20020;-65
2022/05/11 01:16:34;;;;;;;9.25;5.80;;;;;;;11.53;99.36;98387.69;5066345;28;20031;-65
2022/05/11 01:18:59;;;;;;;7.13;4.70;;;;;;;11.40;98.77;98384.53;5066181;28;20029;-65
2022/05/11 01:21:35;;;;;;;7.90;4.93;;;;;;;11.49;99.26;98389.56;5051722;28;20164;-65
2022/05/11 01:24:07;;;;;;;7.93;4.97;;;;;;;11.46;100.00;98384.38;5046353;28;20021;-65
2022/05/11 01:26:33;;;;;;;7.13;4.95;;;;;;;11.40;100.00;98384.53;5046159;28;20088;-65
2022/05/11 01:29:01;;;;;;;8.00;4.90;;;;;;;11.52;100.00;98389.44;5046548;28;20017;-66
2022/05/11 01:31:26;;;;;;;7.35;4.75;;;;;;;11.53;99.61;98383.28;5060105;28;20024;-66
2022/05/11 01:33:51;;;;;;;9.00;5.00;;;;;;;11.48;98.84;98387.81;5066107;28;20025;-65
2022/05/11 01:36:30;;;;;;;9.68;5.03;;;;;;;11.50;98.87;98391.28;5065987;28;20347;-65
2022/05/11 01:39:09;;;;;;;9.70;4.95;;;;;;;11.50;99.33;98388.63;5064382;28;20217;-65
2022/05/11 01:41:43;;;;;;;13.15;4.28;;;;;;;11.43;99.49;98388.84;5051064;28;20029;-65
2022/05/11 01:44:16;;;;;;;8.88;5.28;;;;;;;11.44;99.20;98380.91;5046237;28;20045;-65
2022/05/11 01:46:45;;;;;;;;;;;;;;;11.42;99.51;98380.06;5046864;28;20017;-65
2022/05/11 01:49:11;;;;;;;7.53;4.60;;;;;;;11.39;99.84;98377.50;5045893;28;19905;-65
2022/05/11 01:51:36;;;;;;;10.10;5.00;;;;;;;11.31;99.53;98374.22;5060372;28;20028;-65
2022/05/11 01:54:02;;;;;;;9.05;5.05;;;;;;;11.35;100.00;98375.88;5065911;28;20040;-65
2022/05/11 01:56:27;;;;;;;7.30;5.00;;;;;;;11.32;100.00;98375.94;5065748;28;20021;-65
2022/05/11 01:58:54;;;;;;;9.63;5.50;;;;;;;11.31;100.00;98379.50;5065582;28;20070;-65
2022/05/11 02:01:24;;;;;;;7.97;5.03;;;;;;;11.35;100.00;98381.13;5053239;28;20037;-65
2022/05/11 02:03:49;;;;;;;9.35;5.05;;;;;;;11.30;99.72;98372.50;5009977;28;1024196;-65
2022/05/11 02:09:00;;;;;;;7.38;5.20;;;;;;;11.32;98.85;98365.41;5046848;28;20075;-65
2022/05/11 02:11:26;;;;;;;9.15;5.07;;;;;;;11.29;99.75;98367.28;5060789;28;20051;-65
2022/05/11 02:13:53;;;;;;;8.68;4.90;;;;;;;11.26;98.34;98368.19;5066322;28;20021;-65
2022/05/11 02:16:18;;;;;;;8.00;4.97;;;;;;;11.26;98.16;98370.81;5066395;28;20031;-65
2022/05/11 02:18:43;;;;;;;7.15;4.78;;;;;;;11.18;99.11;98380.72;5066241;28;20317;-65
2022/05/11 02:21:09;;;;;;;9.00;4.75;;;;;;;11.18;99.49;98377.22;5053835;28;20309;-65
2022/05/11 02:23:36;;;;;;;8.23;4.70;;;;;;;11.10;99.32;98372.13;5045821;28;20025;-65
2022/05/11 02:26:01;;;;;;;10.30;4.60;;;;;;;11.08;99.66;98376.59;5045447;28;20025;-65
2022/05/11 02:28:27;;;;;;;8.20;5.30;;;;;;;11.11;99.74;98376.50;5045617;28;20325;-65
2022/05/11 02:30:54;;;;;;;9.75;4.93;;;;;;;11.09;100.00;98373.03;5054801;28;20090;-65
2022/05/11 02:33:21;;;;;;;8.35;5.00;;;;;;;11.07;100.00;98385.38;5064754;28;20024;-65
2022/05/11 02:35:47;;;;;;;8.65;5.35;;;;;;;11.05;100.00;98374.03;5065323;28;20346;-65
2022/05/11 02:38:19;;;;;;;11.15;5.38;;;;;;;11.11;100.00;98376.50;5065447;28;20048;-65
2022/05/11 02:40:46;;;;;;;7.65;4.78;;;;;;;11.13;100.00;98384.38;5056977;28;20023;-65
2022/05/11 02:43:11;;;;;;;13.30;4.80;;;;;;;11.05;100.00;98379.31;5045397;28;20276;-65
2022/05/11 02:45:41;;;;;;;9.48;4.93;;;;;;;11.07;99.84;98377.47;5045166;28;20028;-65
2022/05/11 02:48:09;;;;;;;6.78;4.40;;;;;;;11.07;99.79;98384.53;5045361;28;20190;-65
2022/05/11 02:50:39;;;;;;;8.63;4.57;;;;;;;11.02;99.80;98387.28;5051905;28;20071;-65
2022/05/11 02:53:08;;;;;;;8.25;5.28;;;;;;;10.98;99.80;98384.75;5065796;28;20035;-65
2022/05/11 02:55:45;;;;;;;6.40;4.43;;;;;;;10.94;99.70;98379.56;5065633;28;20071;-65
2022/05/11 02:58:13;;;;;;;6.97;4.85;;;;;;;10.95;100.00;98375.16;5059665;28;20024;-65
2022/05/11 03:00:40;;;;;;;8.40;5.03;;;;;;;10.91;100.00;98378.75;5051893;28;20021;-65
2022/05/11 03:03:06;;;;;;;7.70;4.60;;;;;;;10.97;100.00;98378.63;5065630;28;20020;-65
2022/05/11 03:05:33;;;;;;;9.65;5.32;;;;;;;10.93;99.44;98382.25;5065228;28;20064;-65
2022/05/11 03:07:58;;;;;;;10.00;5.07;;;;;;;10.81;99.31;98378.13;5065418;28;20035;-65
2022/05/11 03:10:24;;;;;;;7.40;4.72;;;;;;;10.83;99.68;98376.31;5060994;28;20049;-65
2022/05/11 03:12:49;;;;;;;7.15;4.45;;;;;;;10.83;99.98;98380.75;5045378;28;20025;-65
2022/05/11 03:15:15;;;;;;;8.98;4.78;;;;;;;10.84;100.00;98377.19;5045539;28;20028;-65
2022/05/11 03:17:41;;;;;;;7.90;4.50;;;;;;;10.81;99.78;98378.13;5045310;28;20036;-65
2022/05/11 03:20:08;;;;;;;6.57;4.30;;;;;;;10.89;99.67;98377.94;5046619;28;20084;-65
2022/05/11 03:22:33;;;;;;;7.57;4.50;;;;;;;10.84;99.53;98377.19;5065191;28;20044;-65
2022/05/11 03:24:59;;;;;;;7.15;4.30;;;;;;;10.87;99.76;98372.72;5065205;28;20327;-65
2022/05/11 03:27:24;;;;;;;8.57;4.43;;;;;;;10.86;100.00;98370.13;5065164;28;20332;-65
2022/05/11 03:29:51;;;;;;;7.93;5.03;;;;;;;10.82;100.00;98364.06;5064900;28;20316;-65
2022/05/11 03:35:00;;;;;;;12.77;4.63;;;;;;;10.89;100.00;98365.63;5045106;28;20229;-65
2022/05/11 03:37:25;;;;;;;9.50;5.18;;;;;;;10.91;100.00;98362.97;5045070;28;20021;-65
2022/05/11 03:39:51;;;;;;;9.50;5.35;;;;;;;10.92;100.00;98359.44;5044977;28;20025;-65
2022/05/11 03:42:21;;;;;;;6.63;4.25;;;;;;;10.98;100.00;98364.53;5063607;28;20087;-65
2022/05/11 03:44:47;;;;;;;6.95;4.47;;;;;;;10.99;100.00;98355.75;5064841;28;20021;-65
2022/05/11 03:47:12;;;;;;;7.75;4.80;;;;;;;11.02;99.82;98351.25;5065079;28;20073;-65
2022/05/11 03:49:37;;;;;;;6.60;4.32;;;;;;;11.02;99.90;98358.31;5048291;28;20033;-65
2022/05/11 03:52:04;;;;;;;10.70;4.53;;;;;;;11.00;99.74;98354.84;5065122;28;20025;-65
2022/05/11 03:54:29;;;;;;;6.97;4.68;;;;;;;11.02;99.65;98350.41;5065050;28;20020;-65
2022/05/11 03:56:55;;;;;;;5.60;3.85;;;;;;;10.95;99.76;98359.38;5065223;28;20028;-65
2022/05/11 03:59:20;;;;;;;6.70;4.18;;;;;;;11.02;100.00;98354.81;5067488;28;20028;-65
2022/05/11 04:01:45;;;;;;;7.38;4.97;;;;;;;11.04;100.00;98353.00;5067084;28;20028;-65
2022/05/11 04:04:11;;;;;;;11.10;5.03;;;;;;;11.10;100.00;98358.97;5053064;28;20049;-65
2022/05/11 04:06:36;;;;;;;10.88;5.28;;;;;;;10.97;99.98;98347.00;5044976;28;20028;-65
2022/05/11 04:09:03;;;;;;;10.70;5.43;;;;;;;11.04;100.00;98348.59;5045049;28;20029;-65
2022/05/11 04:11:29;;;;;;;8.13;4.95;;;;;;;11.07;100.00;98350.28;5044904;28;20075;-65
2022/05/11 04:13:55;;;;;;;10.02;5.18;;;;;;;11.12;100.00;98351.91;5045205;28;20064;-65
2022/05/11 04:16:21;;;;;;;8.50;4.93;;;;;;;11.20;100.00;98357.81;5054317;28;20017;-65
2022/05/11 04:18:46;;;;;;;10.30;5.25;;;;;;;11.22;100.00;98348.13;5073035;28;20126;-65
2022/05/11 04:21:12;;;;;;;7.63;4.70;;;;;;;11.28;100.00;98353.22;5064262;28;20029;-65
2022/05/11 04:23:40;;;;;;;7.07;4.43;;;;;;;11.42;99.90;98356.34;5064180;28;20212;-65
2022/05/11 04:26:07;;;;;;;7.97;4.55;;;;;;;11.43;99.57;98358.09;5081855;28;20024;-65
2022/05/11 04:28:32;;;;;;;8.45;4.88;;;;;;;11.46;98.73;98352.75;5079774;28;20078;-65
2022/05/11 04:31:06;;;;;;;6.28;4.22;;;;;;;11.53;98.85;98354.28;5052968;28;20340;-65
2022/05/11 04:33:32;;;;;;;7.22;4.40;;;;;;;11.54;98.85;98345.47;5045019;28;20022;-66
2022/05/11 04:35:57;;;;;;;6.60;4.40;;;;;;;11.59;98.93;98343.59;5046280;28;20259;-68
2022/05/11 04:38:23;;;;;;;7.55;5.03;;;;;;;11.62;96.99;98348.81;5057734;28;20025;-68
2022/05/11 04:40:48;;;;;;;7.15;4.32;;;;;;;11.60;96.11;98361.13;5063378;28;20047;-68
2022/05/11 04:43:14;;;;;;;8.10;5.30;;;;;;;11.56;96.07;98353.34;5063377;28;20064;-68
2022/05/11 04:45:40;;;;;;;6.50;4.25;;;;;;;11.79;95.62;98356.22;5063405;28;20051;-68
2022/05/11 04:48:06;;;;;;;5.70;4.05;;;;;;;12.04;95.80;98352.84;5063426;28;20035;-68
2022/05/11 04:50:32;;;;;;;6.60;4.50;;;;;;;12.40;95.22;98362.28;5063468;28;20025;-68
2022/05/11 04:52:58;;;;;;;6.70;4.53;;;;;;;13.09;92.67;98356.53;5063288;28;20024;-68
2022/05/11 04:55:23;;;;;;;8.02;4.05;;;;;;;13.51;90.57;98362.97;5063294;28;20067;-68
2022/05/11 04:57:49;;;;;;;6.10;4.10;;;;;;;13.83;88.48;98364.47;5064295;28;20021;-68
2022/05/11 05:00:14;;;;;;;5.53;3.70;;;;;;;14.06;87.14;98367.13;5066934;28;20153;-68
2022/05/11 05:02:40;;;;;;;6.75;4.05;;;;;;;14.15;87.43;98361.50;5066703;28;20024;-68
2022/05/11 05:05:06;;;;;;;6.38;4.10;;;;;;;14.35;86.99;98370.44;5066823;28;20037;-68
2022/05/11 05:07:35;;;;;;;6.57;3.78;;;;;;;14.70;86.03;98367.28;5067103;28;20025;-68
2022/05/11 05:10:02;;;;;;;7.70;4.65;;;;;;;14.74;84.80;98368.00;5066901;28;20034;-69
2022/05/11 05:12:27;;;;;;;4.80;3.47;;;;;;;15.16;84.86;98374.22;5066709;28;20019;-69
2022/05/11 05:14:52;;;;;;;6.43;3.60;;;;;;;15.74;82.22;98376.13;5066697;28;20020;-69
2022/05/11 05:17:18;;;;;;;5.60;3.28;;;;;;;15.87;81.56;98377.31;5066704;28;20051;-69
2022/05/11 05:19:45;;;;;;;5.32;3.80;;;;;;;16.27;80.58;98377.25;5066659;28;20044;-69
2022/05/11 05:22:11;;;;;;;6.25;3.58;;;;;;;16.51;79.62;98383.22;5066573;28;20324;-69
2022/05/11 05:24:37;;;;;;;6.00;3.65;;;;;;;16.45;78.95;98384.38;5066520;28;20028;-69
2022/05/11 05:27:03;;;;;;;7.18;3.28;;;;;;;16.56;78.62;98384.75;5066541;28;20339;-69
2022/05/11 05:32:14;;;;;;;5.68;4.00;;;;;;;16.44;80.15;98390.63;5066356;28;20208;-69
2022/05/11 05:34:40;;;;;;;7.05;4.13;;;;;;;17.14;78.16;98393.44;5066341;28;20028;-69
2022/05/11 05:37:05;;;;;;;4.07;3.15;;;;;;;17.36;77.38;98398.53;5066579;28;20025;-69
2022/05/11 05:39:31;;;;;;;5.60;3.50;;;;;;;18.10;75.37;98399.06;5066319;28;20021;-69
2022/05/11 05:41:56;;;;;;;5.47;3.45;;;;;;;18.81;73.88;98400.53;5066395;28;20029;-69
2022/05/11 05:44:22;;;;;;;5.25;3.83;;;;;;;19.47;74.08;98399.38;5066128;28;20024;-69
2022/05/11 05:46:47;;;;;;;5.70;3.80;;;;;;;20.02;73.59;98403.13;5066123;28;20028;-69
2022/05/11 05:49:13;;;;;;;6.40;4.20;;;;;;;20.61;72.08;98402.16;5066092;28;20317;-69
2022/05/11 05:51:39;;;;;;;7.57;4.38;;;;;;;21.35;69.67;98406.22;5066050;28;20017;-69
2022/05/11 05:54:06;;;;;;;7.30;4.28;;;;;;;22.08;65.56;98400.31;5066240;28;20027;-69
2022/05/11 05:56:32;;;;;;;7.57;5.10;;;;;;;22.50;63.97;98405.38;5065941;28;20029;-69
2022/05/11 05:59:01;;;;;;;6.65;4.63;;;;;;;22.89;64.66;98407.03;5065852;28;20028;-69
2022/05/11 06:01:27;;;;;;;5.80;4.63;;;;;;;23.52;63.50;98409.53;5066036;28;20055;-69
2022/05/11 06:03:52;;;;;;;7.50;5.07;;;;;;;23.84;63.73;98414.19;5065562;28;20228;-69
2022/05/11 06:06:19;;;;;;;7.43;5.30;;;;;;;24.15;58.61;98404.66;5065794;28;20036;-69
2022/05/11 06:08:45;;;;;;;6.47;4.30;;;;;;;24.53;58.23;98408.75;5064779;28;20025;-69
2022/05/11 06:11:11;;;;;;;9.77;4.30;;;;;;;25.00;58.07;98407.69;5065690;28;20027;-69
2022/05/11 06:13:38;;;;;;;6.20;4.80;;;;;;;25.38;55.21;98409.97;5065629;28;20024;-69
2022/05/11 06:16:09;;;;;;;7.45;3.95;;;;;;;25.08;55.47;98403.38;5065520;28;20028;-69
2022/05/11 06:18:36;;;;;;;;;;;;;;;25.38;55.11;98407.25;5066212;28;20327;-69
2022/05/11 06:21:01;;;;;;;5.75;4.32;;;;;;;25.43;54.45;98407.75;5065436;28;19908;-69
2022/05/11 06:23:26;;;;;;;8.30;4.57;;;;;;;25.60;55.41;98396.41;5065439;28;20092;-69
2022/05/11 06:25:52;;;;;;;7.35;4.22;;;;;;;25.86;53.79;98408.56;5065362;28;20029;-69
2022/05/11 06:28:18;;;;;;;6.63;4.28;;;;;;;26.15;52.12;98409.66;5065324;28;20324;-69
2022/05/11 06:30:46;;;;;;;5.15;3.58;;;;;;;26.50;52.16;98399.38;5065192;28;20023;-69
2022/05/11 06:33:12;;;;;;;5.93;4.07;;;;;;;26.16;52.72;98401.44;5065212;28;20024;-69
2022/05/11 06:35:37;;;;;;;6.65;3.75;;;;;;;26.88;50.87;98400.44;5065190;28;20024;-69
2022/05/11 06:38:07;;;;;;;9.98;4.35;;;;;;;26.63;50.65;98400.03;5065194;28;20021;-69
2022/05/11 06:40:33;;;;;;;4.45;3.63;;;;;;;27.04;51.09;98395.38;5065028;28;20073;-69
2022/05/11 06:43:01;;;;;;;5.38;3.67;;;;;;;26.80;50.03;98396.72;5065017;28;20024;-69
2022/05/11 06:45:27;;;;;;;6.22;4.07;;;;;;;27.16;51.31;98393.41;5065012;28;20378;-69
2022/05/11 06:47:53;;;;;;;6.28;3.83;;;;;;;27.53;50.01;98397.22;5064934;28;20088;-69
2022/05/11 06:50:19;;;;;;;7.97;4.45;;;;;;;27.40;49.22;98402.06;5065166;28;20088;-69
2022/05/11 06:52:45;;;;;;;5.38;3.42;;;;;;;27.41;50.04;98392.94;5064842;28;20021;-69
2022/05/11 07:00:38;;;;;;;5.75;3.88;;;;;;;27.89;49.43;98391.16;5064664;28;20028;-69
2022/05/11 07:03:05;;;;;;;5.07;3.53;;;;;;;28.31;49.70;98395.22;5064642;28;20025;-69
2022/05/11 07:05:32;;;;;;;5.68;3.63;;;;;;;28.07;47.65;98397.56;5064466;28;20213;-69
2022/05/11 07:07:58;;;;;;;7.05;4.05;;;;;;;28.19;47.36;98398.25;5064841;28;20212;-69
2022/05/11 07:10:24;;;;;;;4.75;3.20;;;;;;;28.55;48.39;98398.34;5064516;28;20035;-69
2022/05/11 07:12:49;;;;;;;4.47;3.55;;;;;;;28.55;47.43;98398.34;5064469;28;20016;-69
2022/05/11 07:15:18;;;;;;;4.37;3.40;;;;;;;28.48;46.50;98383.69;5064458;28;20069;-69
2022/05/11 07:17:52;;;;;;;4.35;3.53;;;;;;;28.47;47.48;98390.09;5064666;28;20249;-69
2022/05/11 07:20:22;;;;;;;5.38;3.58;;;;;;;29.00;47.08;98393.88;5063983;28;20052;-69
2022/05/11 07:22:47;;;;;;;4.43;3.22;;;;;;;29.50;44.97;98388.03;5064142;28;20324;-69
2022/05/11 07:25:16;;;;;;;4.18;3.22;;;;;;;28.89;46.60;98385.94;5064313;28;20020;-69
2022/05/11 07:27:43;;;;;;;5.70;3.85;;;;;;;28.97;47.33;98388.75;5064322;28;20066;-69
2022/05/11 07:30:15;;;;;;;4.60;3.42;;;;;;;29.39;44.55;98393.69;5064194;28;20021;-69
2022/05/11 07:32:41;;;;;;;4.57;3.00;;;;;;;29.83;44.50;98377.41;5064194;28;20019;-69
2022/05/11 07:35:06;;;;;;;4.53;3.25;;;;;;;29.63;46.25;98375.84;5064201;28;20063;-69
2022/05/11 07:37:32;;;;;;;4.60;3.50;;;;;;;30.36;44.40;98374.63;5064075;28;20083;-70
2022/05/11 07:39:59;;;;;;;4.57;3.38;;;;;;;30.12;43.75;98371.72;5064100;28;20025;-70
2022/05/11 07:42:24;;;;;;;9.82;3.60;;;;;;;29.89;43.31;98370.50;5063936;28;20024;-70
2022/05/11 07:44:50;;;;;;;5.22;3.63;;;;;;;29.83;42.81;98371.13;5064029;28;20033;-70
2022/05/11 07:47:16;;;;;;;5.68;3.70;;;;;;;29.64;43.55;98365.88;5064054;28;20088;-70
2022/05/11 07:49:41;;;;;;;5.38;3.30;;;;;;;29.91;44.27;98377.47;5064222;28;20021;-70
2022/05/11 07:52:08;;;;;;;5.50;3.15;;;;;;;29.75;46.88;98379.19;5064029;28;20017;-70
2022/05/11 07:54:33;;;;;;;4.65;3.40;;;;;;;30.34;45.06;98382.13;5063985;28;20385;-70
2022/05/11 07:59:59;;;;;;;3.45;2.92;;;;;;;30.02;43.64;98360.09;5063840;28;20074;-70
2022/05/11 08:02:32;;;;;;;5.53;3.40;;;;;;;30.20;43.69;98372.66;5063806;28;20025;-70
2022/05/11 08:04:59;;;;;;;7.00;3.38;;;;;;;30.12;44.03;98363.56;5063730;28;20052;-70
2022/05/11 08:07:35;;;;;;;5.05;3.35;;;;;;;30.57;43.11;98364.25;5063718;28;20029;-70
2022/05/11 08:10:00;;;;;;;4.38;3.22;;;;;;;30.41;42.83;98358.72;5064004;28;20025;-70
2022/05/11 08:12:26;;;;;;;4.97;3.13;;;;;;;30.38;43.21;98367.19;5063716;28;20189;-70
2022/05/11 08:14:53;;;;;;;5.30;3.50;;;;;;;30.08;44.32;98360.31;5063933;28;20024;-70
2022/05/11 08:17:31;;;;;;;3.30;2.97;;;;;;;30.12;44.05;98360.88;5063615;28;20021;-70
2022/05/11 08:19:59;;;;;;;4.68;3.42;;;;;;;30.84;43.48;98364.94;5063664;28;20029;-70
2022/05/11 08:22:26;;;;;;;4.53;3.28;;;;;;;30.86;44.09;98364.78;5063821;28;20021;-70
2022/05/11 08:24:53;;;;;;;5.28;2.83;;;;;;;31.42;41.76;98347.84;5063494;28;20028;-70
2022/05/11 08:27:21;;;;;;;4.43;2.90;;;;;;;31.51;41.22;98364.00;5063611;28;20024;-70
2022/05/11 08:35:16;;;;;;;4.53;3.40;;;;;;;32.06;41.31;98356.97;5067440;28;20024;-70
2022/05/11 08:37:42;;;;;;;4.78;2.90;;;;;;;31.51;42.05;98358.56;5066288;28;20017;-70
2022/05/11 08:40:12;;;;;;;4.00;3.03;;;;;;;31.77;41.99;98348.44;5067371;28;20021;-70
2022/05/11 08:42:37;;;;;;;3.97;3.00;;;;;;;31.51;41.98;98350.41;5067505;28;20410;-70
2022/05/11 08:45:02;;;;;;;3.95;2.90;;;;;;;31.46;41.66;98350.09;5067289;28;20021;-70
2022/05/11 08:47:33;;;;;;;3.80;2.83;;;;;;;31.41;42.35;98355.16;5067249;28;20021;-70
2022/05/11 08:50:20;;;;;;;4.82;3.38;;;;;;;31.18;40.90;98352.19;5067262;28;20088;-70
2022/05/11 08:52:58;;;;;;;4.80;2.75;;;;;;;31.28;41.51;98346.63;5067084;28;20096;-70
2022/05/11 08:55:45;;;;;;;6.20;3.08;;;;;;;31.49;41.19;98352.47;5067124;28;20096;-70
2022/05/11 08:58:18;;;;;;;3.67;2.70;;;;;;;31.14;39.99;98345.38;5067061;28;20020;-70
2022/05/11 09:00:45;;;;;;;3.92;3.05;;;;;;;31.78;41.20;98344.69;5066954;28;20328;-70
2022/05/11 09:03:34;;;;;;;4.30;2.80;;;;;;;31.91;42.12;98342.34;5066874;28;20027;-70
2022/05/11 09:06:02;;;;;;;4.07;2.70;;;;;;;32.03;41.80;98343.69;5067154;28;20287;-70
2022/05/11 09:08:32;;;;;;;3.38;2.80;;;;;;;31.60;41.75;98337.69;5066837;28;20020;-70
2022/05/11 09:10:58;;;;;;;3.67;2.90;;;;;;;32.10;43.05;98343.84;5066730;28;20016;-70
2022/05/11 09:13:26;;;;;;;5.60;3.13;;;;;;;31.98;40.08;98332.47;5067033;28;20021;-70
2022/05/11 09:15:53;;;;;;;6.68;2.95;;;;;;;31.86;40.46;98339.25;5067000;28;20063;-70
2022/05/11 09:18:20;;;;;;;3.88;2.97;;;;;;;31.57;40.63;98333.41;5066891;28;20209;-70
2022/05/11 09:20:52;;;;;;;5.18;2.90;;;;;;;31.58;41.42;98332.41;5066814;28;20371;-70
2022/05/11 09:23:29;;;;;;;3.72;2.80;;;;;;;32.01;40.53;98334.00;5066564;28;20025;-70
2022/05/11 09:26:07;;;;;;;4.45;3.00;;;;;;;32.42;41.09;98333.81;5066531;28;20025;-70
2022/05/11 09:28:36;;;;;;;3.35;2.85;;;;;;;32.53;40.92;98322.56;5066771;28;20186;-70
2022/05/11 09:31:06;;;;;;;5.05;2.65;;;;;;;32.04;39.77;98317.31;5066399;28;20220;-70
2022/05/11 09:33:34;;;;;;;3.08;2.78;;;;;;;32.37;40.08;98327.19;5066653;28;20024;-70
2022/05/11 09:36:03;;;;;;;2.83;2.50;;;;;;;32.46;40.85;98321.53;5066337;28;20021;-70
2022/05/11 09:38:46;;;;;;;5.85;2.70;;;;;;;32.51;38.33;98313.69;5066555;28;20058;-70
2022/05/11 09:41:17;;;;;;;3.20;2.60;;;;;;;32.55;38.32;98331.38;5066155;28;20067;-70
2022/05/11 09:43:47;;;;;;;;;;;;;;;31.94;39.98;98325.66;5066341;28;20055;-70
2022/05/11 09:46:33;;;;;;;3.90;2.47;;;;;;;31.86;41.55;98314.75;5066144;28;19904;-70
2022/05/11 09:49:00;;;;;;;3.72;2.70;;;;;;;31.77;41.79;98326.66;5066113;28;20212;-70
2022/05/11 09:51:38;;;;;;;4.22;2.80;;;;;;;31.78;39.25;98306.56;5066031;28;20021;-70
2022/05/11 09:54:18;;;;;;;5.28;3.33;;;;;;;31.30;39.52;98306.53;5065972;28;20039;-70
2022/05/11 09:56:49;;;;;;;2.58;2.38;;;;;;;31.08;43.45;98313.41;5065946;28;20028;-70
2022/05/11 09:59:16;;;;;;;3.47;2.40;;;;;;;31.49;41.17;98311.66;5065946;28;20033;-70
2022/05/11 10:01:42;;;;;;;2.40;2.08;;;;;;;30.98;40.25;98300.97;5065724;28;20021;-70
2022/05/11 10:04:09;;;;;;;4.10;2.50;;;;;;;31.08;40.73;98318.84;5065735;28;20071;-70
2022/05/11 10:06:45;;;;;;;6.82;2.50;;;;;;;31.59;40.43;98300.59;5065777;28;20105;-70
2022/05/11 10:09:12;;;;;;;4.53;2.85;;;;;;;30.80;40.85;98294.78;5065798;28;20025;-70
2022/05/11 10:11:47;;;;;;;3.72;2.30;;;;;;;31.25;39.84;98292.53;5065740;28;20309;-70
2022/05/11 10:23:05;;;;;;;3.25;2.20;;;;;;;31.86;38.64;98297.59;5072424;28;20048;-70
2022/05/11 10:25:36;;;;;;;5.47;2.30;;;;;;;32.13;39.35;98294.50;5065395;28;20045;-70
2022/05/11 10:28:30;;;;;;;2.67;2.13;;;;;;;31.88;38.39;98285.50;5065351;28;20036;-70
2022/05/11 10:31:21;;;;;;;3.67;2.45;;;;;;;31.73;37.91;98283.63;5064895;28;20048;-70
2022/05/11 10:34:10;;;;;;;2.70;2.30;;;;;;;31.88;38.27;98280.06;5065255;28;20036;-70
2022/05/11 10:36:58;;;;;;;4.00;2.25;;;;;;;30.99;40.05;98272.75;5065290;28;20087;-70
2022/05/11 10:40:02;;;;;;;4.30;2.22;;;;;;;31.40;38.95;98295.47;5064693;28;20041;-70
2022/05/11 10:42:35;;;;;;;5.57;2.58;;;;;;;31.30;39.19;98276.59;5065040;28;20090;-70
2022/05/11 10:45:20;;;;;;;3.30;2.22;;;;;;;31.16;38.79;98277.19;5065075;28;20021;-70
2022/05/11 10:48:16;;;;;;;2.50;1.75;;;;;;;30.90;40.34;98273.72;5064996;28;20052;-70
2022/05/11 10:50:52;;;;;;;3.35;2.08;;;;;;;31.32;41.01;98282.75;5064958;28;20070;-70
2022/05/11 10:53:32;;;;;;;4.05;2.35;;;;;;;31.37;38.22;98276.75;5064857;28;20031;-70
2022/05/11 10:56:26;;;;;;;2.30;1.98;;;;;;;31.56;39.63;98276.44;5064187;28;20029;-70
2022/05/11 10:59:38;;;;;;;4.07;2.90;;;;;;;31.15;41.14;98260.06;5064753;28;20086;-70
2022/05/11 11:02:22;;;;;;;3.63;2.10;;;;;;;30.83;39.58;98259.09;5064552;28;20105;-70
2022/05/11 11:05:16;;;;;;;5.35;2.03;;;;;;;30.52;39.61;98260.66;5064735;28;20340;-70
2022/05/11 11:07:58;;;;;;;4.35;2.13;;;;;;;30.82;40.50;98262.84;5064681;28;20048;-70
2022/05/11 11:10:45;;;;;;;2.72;2.20;;;;;;;31.08;40.31;98258.16;5064596;28;20332;-70
2022/05/11 11:13:42;;;;;;;3.72;2.17;;;;;;;30.96;40.29;98256.78;5064496;28;20045;-70
2022/05/11 11:16:11;;;;;;;3.05;2.30;;;;;;;30.94;38.13;98250.66;5064513;28;20032;-70
2022/05/11 11:18:43;;;;;;;3.55;2.40;;;;;;;30.63;39.63;98246.78;5064691;28;20020;-70
2022/05/11 11:21:10;;;;;;;6.80;2.33;;;;;;;30.28;39.58;98253.22;5064393;28;20025;-70
2022/05/11 11:23:41;;;;;;;2.80;2.00;;;;;;;30.15;40.00;98241.91;5064302;28;20092;-70
2022/05/11 11:26:11;;;;;;;;;;;;;;;29.91;40.77;98240.91;5064784;28;20024;-70
2022/05/11 11:28:39;;;;;;;2.88;2.00;;;;;;;29.98;43.96;98239.25;5064326;28;19999;-70
2022/05/11 11:31:12;;;;;;;3.35;2.60;;;;;;;29.48;41.48;98228.19;5064495;28;20090;-70
2022/05/11 11:34:03;;;;;;;4.00;2.35;;;;;;;29.10;41.47;98221.25;5064486;28;20032;-70
2022/05/11 11:36:33;;;;;;;3.05;2.25;;;;;;;28.89;42.60;98223.34;5063750;28;20039;-70
2022/05/11 11:39:00;;;;;;;3.15;2.30;;;;;;;29.27;44.53;98232.25;5064018;28;20096;-70
2022/05/11 11:41:28;;;;;;;2.83;2.45;;;;;;;28.83;43.96;98206.88;5064023;28;20028;-70
2022/05/11 11:44:03;;;;;;;4.68;2.30;;;;;;;28.97;43.82;98218.03;5064061;28;20027;-70
2022/05/11 11:46:38;;;;;;;3.42;2.33;;;;;;;29.10;41.89;98223.94;5064270;28;20023;-70
2022/05/11 11:49:18;;;;;;;5.78;2.53;;;;;;;28.71;45.00;98224.34;5064250;28;20016;-70
2022/05/11 11:51:58;;;;;;;3.80;2.15;;;;;;;28.47;44.27;98211.38;5063971;28;20021;-70
2022/05/11 11:54:36;;;;;;;7.47;2.83;;;;;;;28.25;43.94;98203.63;5063935;28;20017;-70
2022/05/11 11:57:06;;;;;;;4.20;2.53;;;;;;;28.33;44.40;98217.25;5064125;28;20025;-70
2022/05/11 11:59:38;;;;;;;3.55;2.03;;;;;;;28.28;43.49;98203.31;5063863;28;20032;-70
2022/05/11 12:02:29;;;;;;;3.08;1.92;;;;;;;28.16;42.80;98212.63;5063939;28;20036;-70
2022/05/11 12:05:01;;;;;;;3.80;2.15;;;;;;;28.01;43.94;98215.97;5063700;28;20048;-70
2022/05/11 12:16:53;;;;;;;4.47;2.20;;;;;;;27.67;44.06;98188.56;5067780;28;20027;-70
2022/05/11 12:19:20;;;;;;;2.40;2.10;;;;;;;27.73;45.39;98187.13;5067822;28;20059;-70
2022/05/11 12:21:59;;;;;;;4.15;2.28;;;;;;;27.44;41.55;98181.78;5067638;28;20020;-70
2022/05/11 12:24:33;;;;;;;3.35;2.10;;;;;;;27.59;44.50;98191.16;5067920;28;20103;-70